Time;durP1;ratioP1;P1;durP2;ratioP2;P2;SDS_P1;SDS_P2;PMS_P1;PMS_P2;Temp;Humidity;BMP_temperature;BMP_pressure;BME280_temperature;BME280_humidity;BME280_pressure;Samples;Min_cycle;Max_cycle;Signal;HPM_P1;HPM_P2
2022/07/01 00:01:40;;;;;;;0.20;0.10;;;;;;;19.94;61.06;100468.75;5003255;28;20549;-77
2022/07/01 00:04:06;;;;;;;2.20;0.47;;;;;;;19.91;61.22;100472.13;5015328;28;20882;-76
2022/07/01 00:06:32;;;;;;;1.27;0.20;;;;;;;19.95;61.68;100470.41;5023713;28;20407;-77
2022/07/01 00:08:57;;;;;;;0.40;0.20;;;;;;;19.94;61.55;100472.34;5014869;28;20486;-77
2022/07/01 00:11:23;;;;;;;1.10;0.20;;;;;;;19.91;61.63;100478.44;5020564;28;20836;-77
2022/07/01 00:13:48;;;;;;;1.00;0.10;;;;;;;20.05;60.86;100472.94;5000507;28;20496;-77
2022/07/01 00:16:13;;;;;;;0.27;0.10;;;;;;;20.13;60.45;100475.78;5002017;28;20418;-77
2022/07/01 00:18:38;;;;;;;0.30;0.13;;;;;;;20.10;60.30;100476.38;5020879;28;20907;-77
2022/07/01 00:21:04;;;;;;;0.20;0.20;;;;;;;19.82;61.25;100482.22;5008653;28;20410;-77
2022/07/01 00:23:29;;;;;;;1.97;0.30;;;;;;;19.67;61.80;100467.66;5006574;28;20412;-77
2022/07/01 00:25:54;;;;;;;0.22;0.10;;;;;;;19.70;61.69;100463.47;5002596;28;20423;-77
2022/07/01 00:28:20;;;;;;;0.17;0.17;;;;;;;19.77;61.05;100450.13;5017017;28;20412;-77
2022/07/01 00:30:45;;;;;;;0.50;0.10;;;;;;;19.87;60.92;100460.09;5008883;28;20414;-77
2022/07/01 00:33:11;;;;;;;0.60;0.20;;;;;;;19.78;61.43;100468.25;5021077;28;20421;-77
2022/07/01 00:35:36;;;;;;;0.87;0.20;;;;;;;19.59;61.91;100470.31;5018643;28;20940;-77
2022/07/01 00:38:02;;;;;;;0.50;0.10;;;;;;;19.61;61.92;100471.63;5027033;28;20404;-77
2022/07/01 00:40:27;;;;;;;0.10;0.10;;;;;;;19.60;62.12;100477.41;5056340;28;20416;-77
2022/07/01 00:42:53;;;;;;;0.30;0.13;;;;;;;19.54;62.31;100478.63;5000507;28;20417;-77
2022/07/01 00:45:18;;;;;;;0.70;0.20;;;;;;;19.45;62.52;100495.00;5001760;28;20792;-77
2022/07/01 00:47:44;;;;;;;0.50;0.20;;;;;;;19.51;62.37;100488.31;5018259;28;20421;-77
2022/07/01 00:50:12;;;;;;;1.50;0.10;;;;;;;19.56;61.71;100493.69;5024734;28;20526;-77
2022/07/01 00:52:39;;;;;;;0.20;0.10;;;;;;;19.46;62.52;100509.56;5016210;28;20464;-77
2022/07/01 00:55:07;;;;;;;0.30;0.20;;;;;;;19.59;61.42;100506.03;5005573;28;20408;-76
2022/07/01 00:57:34;;;;;;;0.65;0.20;;;;;;;19.67;61.28;100499.81;5005583;28;20408;-77
2022/07/01 01:00:03;;;;;;;0.60;0.30;;;;;;;19.62;61.64;100497.19;5000519;28;20425;-77
2022/07/01 01:02:29;;;;;;;1.50;0.30;;;;;;;19.49;62.36;100492.47;5003101;28;20435;-77
2022/07/01 01:04:54;;;;;;;2.17;0.20;;;;;;;19.36;62.88;100479.50;5006140;28;20404;-77
2022/07/01 01:07:20;;;;;;;0.60;0.20;;;;;;;19.52;62.25;100484.44;5000920;28;20413;-77
2022/07/01 01:09:45;;;;;;;0.70;0.40;;;;;;;19.71;61.73;100484.34;5009785;28;20412;-77
2022/07/01 01:12:11;;;;;;;0.50;0.37;;;;;;;19.62;62.06;100487.00;5005452;28;20915;-77
2022/07/01 01:14:48;;;;;;;0.10;0.10;;;;;;;19.47;62.36;100487.28;5003125;28;20911;-77
2022/07/01 01:17:14;;;;;;;0.80;0.40;;;;;;;19.36;62.64;100477.56;5003807;28;20423;-77
2022/07/01 01:19:41;;;;;;;0.80;0.20;;;;;;;19.27;62.96;100484.84;5024728;28;21001;-77
2022/07/01 01:22:06;;;;;;;0.25;0.10;;;;;;;19.28;63.24;100480.19;5004411;28;20412;-77
2022/07/01 01:24:32;;;;;;;0.30;0.30;;;;;;;19.44;62.74;100493.38;5019766;28;20407;-77
2022/07/01 01:26:57;;;;;;;0.08;0.00;;;;;;;19.51;62.51;100484.72;5018130;28;20490;-76
2022/07/01 01:29:23;;;;;;;0.50;0.10;;;;;;;19.56;62.34;100487.41;5007636;28;20451;-77
2022/07/01 01:31:48;;;;;;;0.20;0.20;;;;;;;19.47;62.58;100490.03;5003994;28;20428;-77
2022/07/01 01:34:13;;;;;;;1.00;0.23;;;;;;;19.34;63.03;100498.19;5020412;28;20770;-77
2022/07/01 01:36:38;;;;;;;0.10;0.10;;;;;;;19.42;62.87;100501.13;5010737;28;20439;-77
2022/07/01 01:39:08;;;;;;;0.40;0.20;;;;;;;19.27;63.19;100500.53;5005617;28;20883;-77
2022/07/01 01:41:33;;;;;;;0.40;0.28;;;;;;;19.21;63.50;100497.06;5003218;28;20438;-77
2022/07/01 01:43:58;;;;;;;0.33;0.20;;;;;;;19.34;62.84;100492.69;5016557;28;20486;-77
2022/07/01 01:46:24;;;;;;;0.20;0.20;;;;;;;19.37;63.36;100484.66;5013177;28;20417;-76
2022/07/01 01:48:49;;;;;;;1.13;0.20;;;;;;;19.47;63.26;100486.44;5008335;28;20448;-77
2022/07/01 01:51:14;;;;;;;2.60;0.13;;;;;;;19.39;63.59;100484.38;5004786;28;20416;-77
2022/07/01 01:53:40;;;;;;;1.20;0.10;;;;;;;19.20;64.17;100478.13;5019007;28;20485;-77
2022/07/01 01:56:06;;;;;;;1.30;0.27;;;;;;;19.05;64.35;100465.47;5013950;28;20488;-77
2022/07/01 01:58:31;;;;;;;1.08;0.20;;;;;;;18.92;64.98;100464.31;5012009;28;20416;-77
2022/07/01 02:00:56;;;;;;;0.30;0.10;;;;;;;19.01;64.62;100464.44;5005284;28;20459;-76
2022/07/01 02:03:22;;;;;;;0.37;0.37;;;;;;;19.02;64.69;100468.81;5004281;28;20741;-77
2022/07/01 02:05:47;;;;;;;0.60;0.27;;;;;;;19.23;64.19;100461.06;5007170;28;20821;-77
2022/07/01 02:08:12;;;;;;;0.40;0.27;;;;;;;19.46;63.23;100460.91;5021782;28;20424;-77
2022/07/01 02:10:38;;;;;;;1.00;0.17;;;;;;;19.58;62.66;100474.16;5024009;28;20455;-77
2022/07/01 02:13:03;;;;;;;0.25;0.25;;;;;;;19.31;63.60;100474.06;5016691;28;20474;-77
2022/07/01 02:15:28;;;;;;;0.20;0.20;;;;;;;19.11;64.19;100478.00;5024300;28;20403;-77
2022/07/01 02:17:56;;;;;;;0.57;0.20;;;;;;;19.08;64.53;100476.66;5014769;28;20408;-77
2022/07/01 02:20:21;;;;;;;1.50;0.20;;;;;;;19.05;64.66;100473.72;5026840;28;20406;-77
2022/07/01 02:22:47;;;;;;;0.10;0.10;;;;;;;19.22;64.21;100475.91;5016528;28;20468;-77
2022/07/01 02:25:12;;;;;;;1.00;0.27;;;;;;;19.18;64.45;100473.75;5026469;28;20725;-77
2022/07/01 02:27:38;;;;;;;0.70;0.20;;;;;;;19.35;64.02;100481.44;5021320;28;20453;-77
2022/07/01 02:30:05;;;;;;;0.90;0.10;;;;;;;19.38;63.57;100478.06;5011222;28;20448;-77
2022/07/01 02:32:31;;;;;;;0.13;0.10;;;;;;;19.17;63.97;100468.53;5004043;28;20946;-77
2022/07/01 02:34:56;;;;;;;0.52;0.17;;;;;;;19.07;64.44;100465.97;5009979;28;20444;-77
2022/07/01 02:37:21;;;;;;;1.50;0.20;;;;;;;19.12;64.24;100476.88;5002641;28;20413;-77
2022/07/01 02:39:47;;;;;;;0.87;0.20;;;;;;;19.20;63.92;100469.91;5022644;28;20403;-77
2022/07/01 02:42:26;;;;;;;0.50;0.20;;;;;;;19.01;64.67;100473.50;5028998;28;20395;-77
2022/07/01 02:44:54;;;;;;;0.20;0.20;;;;;;;19.13;64.23;100467.53;5015834;28;20403;-77
2022/07/01 02:47:21;;;;;;;0.30;0.20;;;;;;;19.01;64.57;100445.22;5016459;28;20428;-77
2022/07/01 02:49:46;;;;;;;0.80;0.35;;;;;;;19.07;64.57;100446.75;5026520;28;20453;-76
2022/07/01 02:52:11;;;;;;;1.35;0.17;;;;;;;19.24;64.11;100457.97;5014294;28;20409;-77
2022/07/01 02:54:37;;;;;;;0.10;0.10;;;;;;;19.25;63.79;100465.13;5013840;28;20434;-76
2022/07/01 02:57:03;;;;;;;0.10;0.10;;;;;;;19.12;64.33;100479.63;5004748;28;20456;-77
2022/07/01 02:59:28;;;;;;;0.27;0.20;;;;;;;19.27;63.79;100486.78;5014945;28;20479;-77
2022/07/01 03:01:54;;;;;;;0.85;0.15;;;;;;;19.27;63.83;100481.28;5012648;28;20450;-76
2022/07/01 03:04:19;;;;;;;1.60;0.30;;;;;;;19.14;64.20;100480.97;5007022;28;20456;-77
2022/07/01 03:06:44;;;;;;;0.50;0.13;;;;;;;19.18;64.34;100454.53;5003192;28;20760;-77
2022/07/01 03:09:10;;;;;;;0.30;0.10;;;;;;;19.07;64.28;100446.75;5003444;28;20951;-77
2022/07/01 03:11:35;;;;;;;0.50;0.10;;;;;;;18.97;64.81;100449.66;5001748;28;20416;-77
2022/07/01 03:14:01;;;;;;;1.20;0.20;;;;;;;18.93;64.89;100456.91;5007925;28;20464;-77
2022/07/01 03:16:26;;;;;;;1.02;0.22;;;;;;;18.88;65.29;100465.19;5015536;28;20815;-77
2022/07/01 03:18:51;;;;;;;0.20;0.20;;;;;;;19.03;64.88;100462.22;5003222;28;20451;-77
2022/07/01 03:21:17;;;;;;;0.30;0.20;;;;;;;19.04;64.84;100467.41;5012410;28;20408;-77
2022/07/01 03:23:42;;;;;;;1.73;0.20;;;;;;;18.96;65.21;100475.50;5007177;28;20417;-77
2022/07/01 03:26:07;;;;;;;1.10;0.10;;;;;;;18.88;65.50;100487.16;5002597;28;20483;-77
2022/07/01 03:28:34;;;;;;;2.23;0.40;;;;;;;18.82;65.63;100493.84;5003757;28;20466;-77
2022/07/01 03:30:59;;;;;;;0.20;0.20;;;;;;;18.73;65.93;100485.50;5021826;28;20410;-77
2022/07/01 03:33:25;;;;;;;1.92;0.20;;;;;;;18.83;65.79;100492.75;5002665;28;20419;-77
2022/07/01 03:35:50;;;;;;;0.60;0.20;;;;;;;19.07;64.87;100490.69;5017158;28;20420;-76
2022/07/01 03:38:15;;;;;;;1.20;0.50;;;;;;;19.23;63.88;100497.59;5036560;28;20407;-77
2022/07/01 03:40:40;;;;;;;0.10;0.10;;;;;;;19.13;64.30;100509.53;5008215;28;20471;-77
2022/07/01 03:43:06;;;;;;;1.30;0.20;;;;;;;19.00;64.88;100507.56;5005224;28;20854;-76
2022/07/01 03:45:31;;;;;;;1.00;0.27;;;;;;;18.94;64.96;100505.19;5007922;28;20458;-77
2022/07/01 03:47:57;;;;;;;1.00;1.00;;;;;;;19.00;64.73;100493.81;5015721;28;20775;-77
2022/07/01 03:50:24;;;;;;;2.33;0.60;;;;;;;18.95;64.82;100491.19;5031510;28;20395;-77
2022/07/01 03:54:29;;;;;;;2.35;0.85;;;;;;;18.82;65.05;100497.44;5010198;28;20427;-77
2022/07/01 03:55:36;;;;;;;2.05;0.82;;;;;;;18.80;65.55;100518.06;5002175;28;20800;-77
2022/07/01 03:58:01;;;;;;;0.60;0.30;;;;;;;18.80;65.34;100529.88;5001758;28;20510;-77
2022/07/01 04:00:27;;;;;;;1.57;1.20;;;;;;;18.70;65.70;100541.00;5004062;28;20440;-77
2022/07/01 04:02:52;;;;;;;1.48;0.43;;;;;;;18.79;65.30;100552.13;5003066;28;20409;-77
2022/07/01 04:05:18;;;;;;;0.53;0.30;;;;;;;18.84;65.22;100557.53;5001170;28;20413;-77
2022/07/01 04:07:43;;;;;;;0.30;0.30;;;;;;;18.77;65.21;100549.66;5030510;28;20531;-77
2022/07/01 04:10:08;;;;;;;0.83;0.40;;;;;;;18.81;64.78;100560.84;5001890;28;20413;-77
2022/07/01 04:12:34;;;;;;;2.90;0.80;;;;;;;18.67;65.28;100560.81;5003355;28;20893;-77
2022/07/01 04:14:59;;;;;;;1.20;0.40;;;;;;;18.64;65.38;100544.91;5009699;28;20409;-77
2022/07/01 04:17:25;;;;;;;1.30;0.27;;;;;;;18.63;65.19;100544.09;4998331;28;20408;-77
2022/07/01 04:19:50;;;;;;;2.20;0.30;;;;;;;18.62;65.42;100550.69;5002130;28;20529;-77
2022/07/01 04:22:35;;;;;;;0.10;0.10;;;;;;;18.75;65.46;100546.41;5001109;28;20891;-77
2022/07/01 04:25:03;;;;;;;2.25;0.30;;;;;;;18.58;66.31;100546.91;5001824;28;20411;-76
2022/07/01 04:27:29;;;;;;;1.10;0.10;;;;;;;18.33;67.31;100549.16;5002589;28;20416;-76
2022/07/01 04:29:54;;;;;;;0.73;0.20;;;;;;;18.21;68.27;100546.03;5000775;28;20423;-76
2022/07/01 04:32:19;;;;;;;0.37;0.30;;;;;;;18.28;67.76;100552.75;5000970;28;20966;-76
2022/07/01 04:34:44;;;;;;;2.30;0.40;;;;;;;18.28;67.75;100561.00;5001841;28;20891;-77
2022/07/01 04:37:10;;;;;;;4.20;0.40;;;;;;;18.32;67.20;100574.94;5001820;28;20461;-77
2022/07/01 04:39:35;;;;;;;1.03;0.30;;;;;;;18.43;67.34;100554.50;5000811;28;20922;-76
2022/07/01 04:42:01;;;;;;;1.50;0.30;;;;;;;18.46;67.02;100562.97;5002156;28;20408;-77
2022/07/01 04:44:28;;;;;;;0.70;0.40;;;;;;;18.54;66.51;100553.31;4994962;28;20504;-76
2022/07/01 04:46:53;;;;;;;0.90;0.38;;;;;;;18.32;67.10;100556.56;5009939;28;20463;-76
2022/07/01 04:49:18;;;;;;;0.33;0.30;;;;;;;18.17;67.57;100566.91;5006688;28;20420;-77
2022/07/01 04:51:44;;;;;;;1.07;0.50;;;;;;;18.17;67.88;100572.41;5041348;28;20460;-76
2022/07/01 04:54:09;;;;;;;1.00;0.57;;;;;;;18.19;67.59;100570.97;5000674;28;20412;-77
2022/07/01 04:56:35;;;;;;;1.00;0.38;;;;;;;18.26;67.00;100565.97;5019608;28;20489;-78
2022/07/01 04:59:01;;;;;;;0.40;0.40;;;;;;;18.28;67.40;100568.41;5010654;28;20409;-77
2022/07/01 05:01:28;;;;;;;2.33;0.70;;;;;;;18.26;67.20;100551.44;5011871;28;20404;-76
2022/07/01 05:03:53;;;;;;;3.10;2.20;;;;;;;18.37;66.81;100544.72;5016365;28;20401;-77
2022/07/01 05:06:18;;;;;;;1.40;0.70;;;;;;;18.54;65.91;100545.06;5013252;28;20831;-77
2022/07/01 05:08:44;;;;;;;0.83;0.83;;;;;;;18.54;66.13;100554.09;5002271;28;20412;-77
2022/07/01 05:11:09;;;;;;;0.80;0.80;;;;;;;18.56;65.80;100562.88;5009240;28;20416;-77
2022/07/01 05:13:34;;;;;;;0.50;0.50;;;;;;;18.40;66.57;100555.91;5010739;28;20957;-76
2022/07/01 05:16:01;;;;;;;0.90;0.60;;;;;;;18.25;67.17;100556.09;5017191;28;20501;-76
2022/07/01 05:23:54;;;;;;;1.97;0.67;;;;;;;18.58;66.27;100560.63;4998566;28;20401;-76
2022/07/01 05:26:20;;;;;;;1.30;1.00;;;;;;;18.61;66.18;100559.22;4997941;28;20401;-76
2022/07/01 05:28:45;;;;;;;1.87;1.10;;;;;;;18.69;65.79;100553.06;5002996;28;20513;-76
2022/07/01 05:31:10;;;;;;;1.10;0.70;;;;;;;18.57;66.34;100563.69;5008692;28;20425;-75
2022/07/01 05:33:36;;;;;;;1.37;1.10;;;;;;;18.54;66.36;100567.81;5036565;28;20423;-77
2022/07/01 05:36:01;;;;;;;2.27;0.90;;;;;;;18.55;66.25;100574.94;5004120;28;20805;-76
2022/07/01 05:38:27;;;;;;;0.97;0.90;;;;;;;18.63;66.25;100568.00;5007917;28;20436;-75
2022/07/01 05:40:53;;;;;;;1.00;0.90;;;;;;;18.55;66.51;100561.22;5007994;28;20420;-77
2022/07/01 05:43:18;;;;;;;1.20;0.98;;;;;;;18.67;66.03;100573.72;5008416;28;21131;-77
2022/07/01 05:45:44;;;;;;;4.20;1.30;;;;;;;18.79;65.75;100563.09;5005640;28;20405;-77
2022/07/01 05:48:09;;;;;;;1.57;1.10;;;;;;;18.82;65.51;100568.00;5010567;28;20451;-77
2022/07/01 05:50:44;;;;;;;1.87;1.10;;;;;;;18.80;65.30;100571.06;5024098;28;20457;-76
2022/07/01 05:53:09;;;;;;;2.83;1.42;;;;;;;18.59;66.18;100597.13;5009935;28;20442;-77
2022/07/01 05:55:35;;;;;;;1.27;1.13;;;;;;;18.52;67.02;100600.25;5026704;28;20446;-76
2022/07/01 05:58:01;;;;;;;1.15;1.10;;;;;;;18.44;66.94;100597.31;5007022;28;20773;-77
2022/07/01 06:00:27;;;;;;;2.70;1.52;;;;;;;18.32;67.90;100602.38;4997757;28;20406;-77
2022/07/01 06:02:52;;;;;;;1.95;1.50;;;;;;;18.31;68.13;100601.56;5009713;28;20381;-77
2022/07/01 06:05:17;;;;;;;2.30;1.60;;;;;;;18.34;68.52;100603.72;5042140;28;20971;-77
2022/07/01 06:07:43;;;;;;;1.60;1.50;;;;;;;18.47;68.79;100602.22;5004792;28;20400;-77
2022/07/01 06:10:11;;;;;;;2.13;1.20;;;;;;;18.40;69.11;100599.81;5039001;28;20403;-77
2022/07/01 06:12:38;;;;;;;2.35;1.45;;;;;;;18.39;68.95;100597.34;5020794;28;20503;-77
2022/07/01 06:15:05;;;;;;;1.47;1.37;;;;;;;18.32;69.45;100578.50;5019164;28;20818;-77
2022/07/01 06:17:30;;;;;;;2.30;1.48;;;;;;;18.48;69.10;100590.09;5011664;28;20398;-77
2022/07/01 06:19:55;;;;;;;6.90;1.50;;;;;;;18.54;69.11;100587.03;5033664;28;20391;-77
2022/07/01 06:22:20;;;;;;;1.70;1.20;;;;;;;18.67;68.46;100596.50;5033298;28;20387;-77
2022/07/01 06:24:47;;;;;;;2.17;1.30;;;;;;;18.63;67.93;100606.41;5041023;28;20411;-77
2022/07/01 06:27:13;;;;;;;1.20;0.95;;;;;;;18.38;69.33;100614.91;5016717;28;20410;-77
2022/07/01 06:29:38;;;;;;;3.05;1.10;;;;;;;18.25;69.20;100616.44;5007271;28;20475;-77
2022/07/01 06:32:07;;;;;;;1.90;1.13;;;;;;;18.24;69.53;100608.53;4997104;28;20653;-77
2022/07/01 06:34:33;;;;;;;2.42;1.27;;;;;;;18.37;68.76;100607.81;5027757;28;20917;-77
2022/07/01 06:37:01;;;;;;;1.42;1.10;;;;;;;18.38;68.60;100610.25;5024510;28;20420;-77
2022/07/01 06:39:27;;;;;;;1.17;0.90;;;;;;;18.37;68.70;100618.78;5024989;28;20795;-76
2022/07/01 06:41:53;;;;;;;3.30;1.37;;;;;;;18.35;68.89;100635.53;5021362;28;20449;-77
2022/07/01 06:44:18;;;;;;;5.60;1.15;;;;;;;18.40;69.00;100635.50;5042723;28;20411;-77
2022/07/01 06:46:44;;;;;;;1.37;1.00;;;;;;;18.44;68.64;100639.25;5019819;28;20718;-77
2022/07/01 06:49:09;;;;;;;1.00;0.77;;;;;;;18.42;68.67;100640.66;5024734;28;20535;-77
2022/07/01 06:51:34;;;;;;;1.80;0.90;;;;;;;18.27;69.09;100636.19;5028338;28;20399;-77
2022/07/01 06:53:59;;;;;;;1.20;1.07;;;;;;;18.18;69.71;100631.63;5032345;28;20391;-77
2022/07/01 06:56:25;;;;;;;2.43;0.90;;;;;;;18.24;70.35;100625.81;5024406;28;20494;-76
2022/07/01 06:58:50;;;;;;;1.57;0.90;;;;;;;18.33;70.05;100628.72;5029369;28;20817;-76
2022/07/01 07:01:15;;;;;;;1.20;0.93;;;;;;;18.24;70.57;100631.28;5024081;28;20403;-76
2022/07/01 07:03:41;;;;;;;1.60;0.80;;;;;;;18.20;71.19;100638.47;5020754;28;20439;-76
2022/07/01 07:06:06;;;;;;;1.80;0.90;;;;;;;18.13;71.32;100638.81;5024782;28;20660;-76
2022/07/01 07:08:32;;;;;;;1.77;0.93;;;;;;;18.16;71.91;100637.41;5031129;28;20414;-76
2022/07/01 07:10:58;;;;;;;1.00;0.85;;;;;;;18.27;71.72;100635.38;5032704;28;20398;-75
2022/07/01 07:13:24;;;;;;;1.88;1.00;;;;;;;18.30;71.58;100640.28;5025418;28;20444;-74
2022/07/01 07:15:50;;;;;;;1.02;0.73;;;;;;;18.35;71.21;100638.28;5000118;28;20482;-75
2022/07/01 07:18:15;;;;;;;2.00;0.80;;;;;;;18.40;70.83;100645.66;5029153;28;20440;-74
2022/07/01 07:20:41;;;;;;;4.77;0.67;;;;;;;18.43;70.73;100645.88;5038723;28;20461;-75
2022/07/01 07:23:06;;;;;;;0.75;0.70;;;;;;;18.40;70.83;100643.72;5023173;28;20393;-74
2022/07/01 07:25:32;;;;;;;1.90;0.70;;;;;;;18.42;70.82;100638.75;5020682;28;20393;-75
2022/07/01 07:27:57;;;;;;;0.90;0.60;;;;;;;18.54;70.44;100630.16;5031987;28;20414;-74
2022/07/01 07:30:22;;;;;;;2.95;1.50;;;;;;;18.50;69.86;100626.34;5023919;28;20924;-76
2022/07/01 07:32:48;;;;;;;1.20;0.73;;;;;;;18.45;70.34;100623.63;5047328;28;20430;-75
2022/07/01 07:35:13;;;;;;;0.50;0.50;;;;;;;18.56;69.87;100608.72;5031604;28;20417;-76
2022/07/01 07:37:40;;;;;;;2.40;0.80;;;;;;;18.60;69.44;100601.53;5032221;28;20395;-75
2022/07/01 07:40:09;;;;;;;2.20;0.80;;;;;;;18.58;69.02;100598.22;5032339;28;20419;-76
2022/07/01 07:42:35;;;;;;;2.75;1.02;;;;;;;18.52;69.29;100619.44;5032078;28;20391;-75
2022/07/01 07:45:01;;;;;;;1.45;0.85;;;;;;;18.40;70.48;100654.69;5014931;28;20435;-76
2022/07/01 07:47:26;;;;;;;2.20;0.80;;;;;;;18.40;71.12;100656.63;5031750;28;20474;-75
2022/07/01 07:49:52;;;;;;;0.73;0.73;;;;;;;18.40;71.06;100662.94;5031773;28;20502;-75
2022/07/01 07:52:17;;;;;;;1.80;1.03;;;;;;;18.43;69.87;100656.84;5031861;28;20406;-76
2022/07/01 07:54:43;;;;;;;0.77;0.77;;;;;;;18.38;70.43;100647.84;5030623;28;20837;-76
2022/07/01 07:57:08;;;;;;;1.10;0.90;;;;;;;18.28;71.08;100653.44;5030276;28;20407;-76
2022/07/01 07:59:35;;;;;;;2.17;0.87;;;;;;;18.25;71.44;100673.22;5031793;28;20410;-76
2022/07/01 08:02:00;;;;;;;2.00;0.70;;;;;;;18.21;71.70;100672.19;5031694;28;20391;-75
2022/07/01 08:04:25;;;;;;;0.60;0.60;;;;;;;18.16;71.72;100656.59;5031648;28;20743;-76
2022/07/01 08:06:51;;;;;;;0.83;0.80;;;;;;;18.08;71.95;100669.00;5030924;28;20478;-76
2022/07/01 08:09:16;;;;;;;2.90;1.07;;;;;;;18.06;72.16;100673.97;5018215;28;20411;-75
2022/07/01 08:11:41;;;;;;;1.80;0.90;;;;;;;18.22;71.53;100687.53;5021138;28;20466;-76
2022/07/01 08:14:07;;;;;;;2.37;1.03;;;;;;;18.33;71.13;100689.06;5031588;28;20402;-76
2022/07/01 08:16:32;;;;;;;0.90;0.90;;;;;;;18.46;70.94;100691.94;5046016;28;20406;-76
2022/07/01 08:18:57;;;;;;;1.00;1.00;;;;;;;18.39;71.45;100693.38;5031354;28;20525;-76
2022/07/01 08:21:23;;;;;;;2.92;0.85;;;;;;;18.32;71.75;100695.66;5031402;28;20897;-76
2022/07/01 08:23:48;;;;;;;0.90;0.90;;;;;;;18.39;71.66;100701.63;5031278;28;20395;-76
2022/07/01 08:26:14;;;;;;;4.07;1.30;;;;;;;18.39;71.72;100704.38;5028611;28;20407;-76
2022/07/01 08:28:40;;;;;;;0.98;0.93;;;;;;;18.35;72.39;100704.13;5028582;28;20445;-76
2022/07/01 08:31:06;;;;;;;0.85;0.70;;;;;;;18.49;71.96;100710.56;5018963;28;20747;-75
2022/07/01 08:33:31;;;;;;;5.23;0.90;;;;;;;18.60;71.37;100698.41;5031249;28;20886;-76
2022/07/01 08:35:56;;;;;;;4.10;0.90;;;;;;;18.64;71.25;100701.38;5031090;28;20438;-76
2022/07/01 08:38:22;;;;;;;0.70;0.70;;;;;;;18.79;70.96;100714.09;5030615;28;20447;-76
2022/07/01 08:40:47;;;;;;;1.60;0.90;;;;;;;18.80;70.92;100727.56;5020960;28;20886;-76
2022/07/01 08:43:12;;;;;;;0.87;0.83;;;;;;;18.76;70.85;100729.25;5031137;28;20399;-76
2022/07/01 08:45:38;;;;;;;0.70;0.70;;;;;;;18.81;70.70;100731.91;5031029;28;20859;-75
2022/07/01 08:48:05;;;;;;;0.80;0.80;;;;;;;18.85;70.50;100732.16;5030410;28;20446;-76
2022/07/01 08:50:38;;;;;;;1.48;0.70;;;;;;;18.89;70.44;100736.78;5030968;28;20779;-76
2022/07/01 08:53:05;;;;;;;1.40;0.65;;;;;;;18.94;70.41;100727.63;5020751;28;20974;-75
2022/07/01 08:55:31;;;;;;;2.50;0.80;;;;;;;18.81;70.07;100728.34;5025004;28;20395;-76
2022/07/01 08:57:57;;;;;;;0.90;0.73;;;;;;;18.88;69.34;100726.91;5030202;28;20402;-76
2022/07/01 09:00:28;;;;;;;1.30;0.60;;;;;;;19.11;68.44;100712.31;5030849;28;20435;-76
2022/07/01 09:03:02;;;;;;;1.45;0.80;;;;;;;19.09;68.34;100722.78;5030754;28;20399;-76
2022/07/01 09:05:29;;;;;;;1.80;0.70;;;;;;;19.06;68.39;100719.81;5030806;28;20529;-76
2022/07/01 09:08:00;;;;;;;1.67;0.70;;;;;;;19.20;68.34;100722.66;5018337;28;20426;-76
2022/07/01 09:10:26;;;;;;;1.40;0.57;;;;;;;19.44;66.49;100726.16;5017575;28;20902;-76
2022/07/01 09:12:52;;;;;;;1.15;0.60;;;;;;;19.51;65.65;100716.44;5025953;28;20472;-76
2022/07/01 09:15:21;;;;;;;1.27;0.55;;;;;;;19.47;65.87;100725.56;5030800;28;20481;-76
2022/07/01 09:17:46;;;;;;;2.10;0.60;;;;;;;19.46;65.41;100721.22;5030066;28;20453;-76
2022/07/01 09:20:29;;;;;;;0.60;0.50;;;;;;;19.49;64.44;100724.19;5030886;28;20387;-76
2022/07/01 09:23:20;;;;;;;1.50;0.60;;;;;;;19.72;64.80;100722.47;5030718;28;20399;-76
2022/07/01 09:25:51;;;;;;;1.02;0.95;;;;;;;20.05;63.60;100726.03;4998922;28;20976;-77
2022/07/01 09:28:26;;;;;;;1.45;0.60;;;;;;;20.01;63.59;100733.25;5018828;28;20921;-76
2022/07/01 09:30:57;;;;;;;0.32;0.32;;;;;;;19.90;63.67;100731.78;5030502;28;20470;-76
2022/07/01 09:33:25;;;;;;;1.30;0.60;;;;;;;20.11;64.08;100733.09;5028859;28;20746;-77
2022/07/01 09:35:52;;;;;;;1.77;0.50;;;;;;;20.27;63.65;100730.91;5030580;28;20391;-76
2022/07/01 09:38:19;;;;;;;1.30;0.70;;;;;;;20.26;62.89;100732.00;5032464;28;20395;-76
2022/07/01 09:40:52;;;;;;;1.80;0.80;;;;;;;20.25;62.75;100722.94;5032469;28;20430;-75
2022/07/01 09:43:20;;;;;;;0.87;0.87;;;;;;;20.03;62.67;100725.50;5032277;28;20444;-76
2022/07/01 09:46:05;;;;;;;1.77;0.67;;;;;;;20.06;61.28;100722.97;5022574;28;20487;-76
2022/07/01 09:48:33;;;;;;;1.05;0.50;;;;;;;20.13;62.04;100720.66;5034151;28;20407;-76
2022/07/01 09:50:59;;;;;;;1.50;0.65;;;;;;;20.17;61.69;100721.69;5033551;28;20403;-76
2022/07/01 09:53:25;;;;;;;1.63;0.60;;;;;;;20.41;60.82;100732.59;5023560;28;20415;-76
2022/07/01 09:55:50;;;;;;;1.83;0.50;;;;;;;20.68;58.74;100727.09;5033917;28;20387;-77
2022/07/01 09:58:16;;;;;;;1.17;0.50;;;;;;;20.93;57.58;100728.53;5033816;28;20737;-77
2022/07/01 10:00:42;;;;;;;2.07;0.50;;;;;;;21.40;57.33;100726.44;5033272;28;20414;-77
2022/07/01 10:03:08;;;;;;;0.60;0.60;;;;;;;21.42;57.90;100729.69;5003223;28;20422;-77
2022/07/01 10:05:53;;;;;;;0.70;0.70;;;;;;;21.30;57.52;100729.44;5033790;28;20425;-76
2022/07/01 10:08:55;;;;;;;1.20;0.40;;;;;;;21.26;58.14;100722.91;5021976;28;20418;-77
2022/07/01 10:11:42;;;;;;;0.80;0.50;;;;;;;21.33;57.25;100728.81;5008934;28;20435;-76
2022/07/01 10:14:09;;;;;;;1.98;0.70;;;;;;;21.95;56.93;100738.13;5033718;28;20892;-76
2022/07/01 10:16:36;;;;;;;0.63;0.50;;;;;;;22.09;55.35;100738.88;5022598;28;20405;-77
2022/07/01 10:19:19;;;;;;;0.50;0.50;;;;;;;21.63;56.02;100742.72;5020586;28;20436;-76
2022/07/01 10:21:45;;;;;;;1.85;0.50;;;;;;;21.17;56.50;100742.91;5018636;28;20403;-76
2022/07/01 10:24:15;;;;;;;0.90;0.53;;;;;;;20.97;56.96;100748.84;5026354;28;20496;-77
2022/07/01 10:26:41;;;;;;;1.10;0.65;;;;;;;20.67;56.98;100744.75;5032979;28;20387;-76
2022/07/01 10:29:29;;;;;;;1.63;0.53;;;;;;;20.59;57.54;100747.38;5029130;28;20904;-77
2022/07/01 10:32:06;;;;;;;0.95;0.68;;;;;;;20.64;57.97;100750.03;5013984;28;20425;-77
2022/07/01 10:34:37;;;;;;;0.50;0.45;;;;;;;20.50;58.55;100750.03;5016592;28;20407;-77
2022/07/01 10:37:10;;;;;;;1.73;0.60;;;;;;;20.82;57.51;100740.84;5016755;28;20760;-77
2022/07/01 10:40:13;;;;;;;0.40;0.40;;;;;;;21.46;56.03;100739.81;5011003;28;20424;-77
2022/07/01 10:42:58;;;;;;;0.63;0.40;;;;;;;23.52;51.68;100740.09;4953266;29;20906;-77
2022/07/01 10:45:24;;;;;;;0.47;0.35;;;;;;;24.19;49.76;100744.03;5012846;28;20819;-77
2022/07/01 10:48:19;;;;;;;1.30;0.33;;;;;;;24.47;47.62;100744.44;5021912;28;20412;-78
2022/07/01 10:50:48;;;;;;;1.38;0.50;;;;;;;24.91;46.92;100745.91;5012768;28;20393;-77
2022/07/01 10:53:15;;;;;;;1.30;0.77;;;;;;;25.11;46.42;100742.38;5013207;28;20466;-77
2022/07/01 10:55:49;;;;;;;1.30;0.47;;;;;;;24.23;46.87;100750.53;5012646;28;20455;-77
2022/07/01 10:58:18;;;;;;;1.05;0.65;;;;;;;23.53;49.00;100745.34;5002548;28;20402;-78
2022/07/01 11:00:50;;;;;;;0.75;0.43;;;;;;;23.87;49.26;100749.25;5021345;28;20457;-77
2022/07/01 11:03:21;;;;;;;0.40;0.40;;;;;;;25.20;44.92;100736.78;5032801;28;20379;-78
2022/07/01 11:05:49;;;;;;;1.40;0.52;;;;;;;26.83;40.47;100749.22;5031973;28;20395;-76
2022/07/01 11:08:15;;;;;;;1.30;0.40;;;;;;;27.73;39.38;100744.13;5032344;28;20410;-77
2022/07/01 11:10:41;;;;;;;1.90;0.70;;;;;;;27.75;39.09;100744.59;5032998;28;20901;-76
2022/07/01 11:13:08;;;;;;;0.55;0.40;;;;;;;26.78;40.45;100741.06;5013069;28;20415;-77
2022/07/01 11:15:34;;;;;;;1.00;0.40;;;;;;;25.78;41.51;100745.03;5044598;28;20445;-77
2022/07/01 11:18:00;;;;;;;2.75;0.52;;;;;;;24.92;43.77;100749.50;5010910;28;20417;-77
2022/07/01 11:20:29;;;;;;;1.00;0.55;;;;;;;24.26;45.63;100738.81;5019972;28;20478;-76
2022/07/01 11:22:54;;;;;;;1.57;0.43;;;;;;;23.61;46.31;100738.97;5027739;28;20821;-77
2022/07/01 11:25:21;;;;;;;2.35;0.50;;;;;;;23.38;47.32;100742.19;5015617;28;20400;-77
2022/07/01 11:27:50;;;;;;;0.60;0.47;;;;;;;23.25;47.51;100739.22;5020586;28;20399;-77
2022/07/01 11:30:17;;;;;;;0.43;0.40;;;;;;;23.15;47.91;100738.75;5027143;28;20461;-77